createdAt,value
2023-02-24T00:01:28.179Z,86.93
2023-02-24T00:03:29.734Z,86.60
2023-02-24T00:05:34.299Z,87.14
2023-02-24T00:07:35.804Z,87.31
2023-02-24T00:09:38.196Z,86.63
2023-02-24T00:11:44.019Z,86.87
2023-02-24T00:13:49.156Z,87.41
2023-02-24T00:16:05.014Z,87.10
2023-02-24T00:18:07.252Z,87.24
2023-02-24T00:20:12.171Z,87.42
2023-02-24T00:22:13.667Z,87.56
2023-02-24T00:24:15.585Z,87.63
2023-02-24T00:26:17.121Z,87.10
2023-02-24T00:28:18.572Z,87.24
2023-02-24T00:30:21.435Z,86.41
2023-02-24T00:32:23.134Z,86.65
2023-02-24T00:34:29.041Z,86.10
2023-02-24T00:36:33.861Z,84.93
2023-02-24T00:38:36.960Z,84.09
2023-02-24T00:40:38.429Z,84.66
2023-02-24T00:42:39.932Z,84.57
2023-02-24T00:44:45.182Z,84.02
2023-02-24T00:46:49.462Z,83.77
2023-02-24T00:48:55.028Z,83.96
2023-02-24T00:50:56.509Z,84.20
2023-02-24T00:52:57.979Z,84.45
2023-02-24T00:54:59.426Z,84.16
2023-02-24T00:57:02.847Z,84.27
2023-02-24T00:59:04.329Z,83.89
2023-02-24T01:01:13.706Z,84.56
2023-02-24T01:03:15.399Z,83.98
2023-02-24T01:05:16.918Z,83.74
2023-02-24T01:07:18.538Z,83.02
2023-02-24T01:09:20.996Z,83.58
2023-02-24T01:11:44.603Z,83.14
2023-02-24T01:13:46.341Z,82.48
2023-02-24T01:15:47.877Z,81.58
2023-02-24T01:17:49.529Z,81.82
2023-02-24T01:19:51.892Z,81.89
2023-02-24T01:21:55.246Z,82.00
2023-02-24T01:23:57.494Z,81.75
2023-02-24T01:26:00.060Z,81.51
2023-02-24T01:28:01.563Z,81.32
2023-02-24T01:30:04.979Z,81.32
2023-02-24T01:32:16.950Z,81.31
2023-02-24T01:34:19.192Z,81.31
2023-02-24T01:36:25.416Z,80.80
2023-02-24T01:38:26.870Z,80.73
2023-02-24T01:40:28.409Z,81.20
2023-02-24T01:42:29.926Z,80.69
2023-02-24T01:44:32.744Z,80.93
2023-02-24T01:46:37.406Z,81.03
2023-02-24T01:48:39.012Z,81.47
2023-02-24T01:50:40.488Z,81.17
2023-02-24T01:52:44.249Z,81.09
2023-02-24T01:54:55.174Z,81.32
2023-02-24T01:56:57.948Z,81.08
2023-02-24T01:59:02.045Z,81.37
2023-02-24T02:01:08.836Z,81.36
2023-02-24T02:03:31.172Z,81.53
2023-02-24T02:05:32.672Z,80.73
2023-02-24T02:07:34.208Z,80.74
2023-02-24T02:09:36.111Z,80.68
2023-02-24T02:11:37.669Z,81.16
2023-02-24T02:13:43.684Z,80.99
2023-02-24T02:15:59.583Z,80.91
2023-02-24T02:18:48.581Z,80.71
2023-02-24T02:21:18.854Z,80.50
2023-02-24T02:23:57.833Z,80.58
2023-02-24T02:26:26.794Z,80.25
2023-02-24T02:28:40.090Z,80.58
2023-02-24T02:31:08.061Z,80.56
2023-02-24T02:33:13.186Z,80.86
2023-02-24T02:35:37.031Z,81.19
2023-02-24T02:38:03.314Z,81.58
2023-02-24T02:40:21.140Z,81.78
2023-02-24T02:42:30.817Z,81.87
2023-02-24T02:44:39.786Z,82.29
2023-02-24T02:46:59.343Z,82.33
2023-02-24T02:49:32.367Z,82.12
2023-02-24T02:51:40.850Z,82.49
2023-02-24T02:54:00.013Z,82.48
2023-02-24T02:56:11.591Z,82.65
2023-02-24T02:58:23.589Z,82.77
2023-02-24T03:00:35.212Z,81.97
2023-02-24T03:02:41.325Z,82.21
2023-02-24T03:04:51.306Z,82.14
2023-02-24T03:06:59.036Z,82.37
2023-02-24T03:09:11.405Z,81.82
2023-02-24T03:11:17.404Z,82.13
2023-02-24T03:13:23.961Z,82.02
2023-02-24T03:15:31.800Z,81.77
2023-02-24T03:17:40.845Z,81.59
2023-02-24T03:19:44.751Z,81.32
2023-02-24T03:21:59.140Z,81.41
2023-02-24T03:24:02.637Z,81.14
2023-02-24T03:26:19.032Z,81.02
2023-02-24T03:28:34.025Z,80.59
2023-02-24T03:30:43.209Z,81.12
2023-02-24T03:33:02.089Z,80.56
2023-02-24T03:35:30.275Z,80.20
2023-02-24T03:37:33.569Z,80.42
2023-02-24T03:39:36.467Z,80.30
2023-02-24T03:41:54.155Z,80.22
2023-02-24T03:43:56.985Z,80.60
2023-02-24T03:46:00.426Z,80.62
2023-02-24T03:48:03.931Z,80.51
2023-02-24T03:50:17.333Z,80.46
2023-02-24T03:52:42.721Z,79.91
2023-02-24T03:54:55.479Z,80.18
2023-02-24T03:57:19.016Z,80.56
2023-02-24T03:59:46.725Z,80.41
2023-02-24T04:02:08.932Z,79.97
2023-02-24T04:04:27.406Z,80.36
2023-02-24T04:06:46.343Z,80.29
2023-02-24T04:09:01.377Z,79.99
2023-02-24T04:11:22.617Z,80.26
2023-02-24T04:13:39.250Z,80.94
2023-02-24T04:15:47.319Z,80.75
2023-02-24T04:17:53.527Z,80.94
2023-02-24T04:19:59.364Z,80.67
2023-02-24T04:22:01.398Z,80.65
2023-02-24T04:24:11.791Z,80.53
2023-02-24T04:26:17.870Z,80.51
2023-02-24T04:28:24.369Z,80.72
2023-02-24T04:30:31.444Z,80.83
2023-02-24T04:32:33.481Z,81.33
2023-02-24T04:34:35.274Z,81.38
2023-02-24T04:36:38.307Z,81.75
2023-02-24T04:38:40.076Z,81.75
2023-02-24T04:40:42.513Z,82.04
2023-02-24T04:42:48.851Z,81.65
2023-02-24T04:44:50.280Z,81.92
2023-02-24T04:46:51.808Z,82.53
2023-02-24T04:48:53.227Z,82.05
2023-02-24T04:50:55.227Z,82.34
2023-02-24T04:53:02.607Z,83.08
2023-02-24T04:55:10.030Z,82.94
2023-02-24T04:57:12.720Z,83.65
2023-02-24T04:59:15.180Z,83.80
2023-02-24T05:01:16.636Z,83.05
2023-02-24T05:03:19.613Z,83.33
2023-02-24T05:05:25.759Z,83.03
2023-02-24T05:07:29.058Z,83.27
2023-02-24T05:09:30.484Z,83.54
2023-02-24T05:11:34.853Z,83.61
2023-02-24T05:13:37.568Z,83.96
2023-02-24T05:15:41.742Z,84.09
2023-02-24T05:17:43.270Z,84.18
2023-02-24T05:20:03.419Z,84.35
2023-02-24T05:22:07.068Z,84.30
2023-02-24T05:24:08.599Z,84.32
2023-02-24T05:26:12.484Z,84.38
2023-02-24T05:28:13.955Z,84.26
2023-02-24T05:30:15.535Z,84.54
2023-02-24T05:32:17.161Z,84.36
2023-02-24T05:34:18.652Z,84.95
2023-02-24T05:36:21.744Z,85.00
2023-02-24T05:38:23.195Z,84.98
2023-02-24T05:40:25.281Z,85.23
2023-02-24T05:42:27.712Z,85.03
2023-02-24T05:44:31.688Z,84.91
2023-02-24T05:46:36.781Z,85.07
2023-02-24T05:48:38.316Z,85.23
2023-02-24T05:50:39.789Z,85.63
2023-02-24T05:52:41.278Z,85.93
2023-02-24T05:54:45.250Z,85.77
2023-02-24T05:56:46.705Z,86.02
2023-02-24T05:58:48.128Z,85.85
2023-02-24T06:00:50.157Z,85.88
2023-02-24T06:02:52.611Z,85.66
2023-02-24T06:04:55.505Z,85.52
2023-02-24T06:06:56.949Z,85.68
2023-02-24T06:08:58.447Z,85.85
2023-02-24T06:10:59.867Z,85.71
2023-02-24T06:13:02.291Z,85.61
2023-02-24T06:15:07.520Z,85.61
2023-02-24T06:17:09.353Z,85.58
2023-02-24T06:19:12.237Z,85.24
2023-02-24T06:21:13.711Z,85.70
2023-02-24T06:23:16.897Z,85.19
2023-02-24T06:25:18.530Z,84.81
2023-02-24T06:27:21.658Z,85.04
2023-02-24T06:29:29.602Z,85.24
2023-02-24T06:31:31.123Z,85.96
2023-02-24T06:33:35.980Z,86.08
2023-02-24T06:35:38.885Z,86.39
2023-02-24T06:37:41.152Z,86.60
2023-02-24T06:39:43.286Z,86.95
2023-02-24T06:41:45.491Z,87.54
2023-02-24T06:43:48.248Z,87.81
2023-02-24T06:45:50.159Z,88.30
2023-02-24T06:47:52.079Z,88.23
2023-02-24T06:49:53.589Z,88.57
2023-02-24T06:51:56.209Z,89.21
2023-02-24T06:53:59.506Z,89.77
2023-02-24T06:56:07.048Z,90.25
2023-02-24T06:58:16.374Z,90.47
2023-02-24T07:00:20.689Z,91.16
2023-02-24T07:02:25.256Z,91.33
2023-02-24T07:04:28.885Z,92.17
2023-02-24T07:06:36.011Z,92.54
2023-02-24T07:08:38.363Z,92.81
2023-02-24T07:10:39.766Z,93.38
2023-02-24T07:12:41.270Z,93.10
2023-02-24T07:14:42.756Z,93.24
2023-02-24T07:16:45.476Z,93.65
2023-02-24T07:18:48.404Z,93.85
2023-02-24T07:20:49.838Z,93.93
2023-02-24T07:22:52.084Z,94.14
2023-02-24T07:25:00.292Z,94.02
2023-02-24T07:27:11.900Z,94.11
2023-02-24T07:29:13.585Z,94.35
2023-02-24T07:31:18.128Z,94.43
2023-02-24T07:33:19.610Z,94.50
2023-02-24T07:35:21.707Z,94.55
2023-02-24T07:37:24.290Z,94.74
2023-02-24T07:39:26.120Z,94.37
2023-02-24T07:41:29.424Z,95.14
2023-02-24T07:43:35.648Z,95.07
2023-02-24T07:45:37.092Z,94.99
2023-02-24T07:47:38.691Z,95.36
2023-02-24T07:49:40.971Z,95.66
2023-02-24T07:51:43.027Z,95.75
2023-02-24T07:53:45.555Z,95.93
2023-02-24T07:55:47.009Z,96.12
2023-02-24T07:57:48.533Z,96.20
2023-02-24T07:59:49.972Z,96.68
2023-02-24T08:01:51.704Z,96.96
2023-02-24T08:04:01.112Z,97.16
2023-02-24T08:06:15.195Z,97.49
2023-02-24T08:08:20.920Z,97.75
2023-02-24T08:10:25.392Z,98.05
2023-02-24T08:12:27.952Z,98.46
2023-02-24T08:14:34.818Z,98.65
2023-02-24T08:16:39.970Z,98.73
2023-02-24T08:18:48.858Z,98.87
2023-02-24T08:20:53.593Z,99.01
2023-02-24T08:22:56.340Z,99.48
2023-02-24T08:25:06.189Z,99.27
2023-02-24T08:27:07.698Z,99.71
2023-02-24T08:29:09.119Z,99.73
2023-02-24T08:31:12.715Z,100.00
2023-02-24T08:33:20.033Z,100.00
2023-02-24T08:35:23.106Z,100.00
2023-02-24T08:37:25.342Z,100.00
2023-02-24T08:39:30.173Z,100.00
2023-02-24T08:41:44.901Z,100.00
2023-02-24T08:43:48.277Z,100.00
2023-02-24T08:45:59.402Z,100.00
2023-02-24T08:48:00.852Z,100.00
2023-02-24T08:50:07.034Z,100.00
2023-02-24T08:52:08.585Z,100.00
2023-02-24T08:54:16.882Z,100.00
2023-02-24T08:56:24.270Z,100.00
2023-02-24T08:58:31.172Z,100.00
2023-02-24T09:00:49.011Z,100.00
2023-02-24T09:02:50.642Z,100.00
2023-02-24T09:05:13.167Z,100.00
2023-02-24T09:07:18.707Z,100.00
2023-02-24T09:09:21.377Z,100.00
2023-02-24T09:11:23.461Z,100.00
2023-02-24T09:13:32.806Z,100.00
2023-02-24T09:15:41.414Z,100.00
2023-02-24T09:17:47.435Z,100.00
2023-02-24T09:19:50.726Z,100.00
2023-02-24T09:21:52.142Z,100.00
2023-02-24T09:23:53.567Z,100.00
2023-02-24T09:25:55.595Z,100.00
2023-02-24T09:28:19.681Z,100.00
2023-02-24T09:30:37.209Z,100.00
2023-02-24T09:32:38.938Z,100.00
2023-02-24T09:34:43.977Z,100.00
2023-02-24T09:36:45.472Z,100.00
2023-02-24T09:39:00.152Z,100.00
2023-02-24T09:41:18.290Z,100.00
2023-02-24T09:43:24.306Z,100.00
2023-02-24T09:45:34.627Z,100.00
2023-02-24T09:47:56.982Z,100.00
2023-02-24T09:50:06.020Z,100.00
2023-02-24T09:52:18.417Z,100.00
2023-02-24T09:54:24.585Z,100.00
2023-02-24T09:56:37.179Z,100.00
2023-02-24T09:58:53.110Z,100.00
2023-02-24T10:01:20.946Z,100.00
2023-02-24T10:03:43.162Z,100.00
2023-02-24T10:06:12.250Z,100.00
2023-02-24T10:08:25.392Z,100.00
2023-02-24T10:10:35.842Z,100.00
2023-02-24T10:12:40.188Z,100.00
2023-02-24T10:15:32.137Z,100.00
2023-02-24T10:17:40.265Z,100.00
2023-02-24T10:19:42.499Z,100.00
2023-02-24T10:22:02.994Z,100.00
2023-02-24T10:24:15.564Z,100.00
2023-02-24T10:26:31.935Z,100.00
2023-02-24T10:28:51.868Z,100.00
2023-02-24T10:31:29.368Z,100.00
2023-02-24T10:33:49.579Z,100.00
2023-02-24T10:36:03.543Z,100.00
2023-02-24T10:38:07.924Z,100.00
2023-02-24T10:40:12.911Z,100.00
2023-02-24T10:42:31.733Z,100.00
2023-02-24T10:44:36.544Z,100.00
2023-02-24T10:46:41.896Z,100.00
2023-02-24T10:48:52.490Z,100.00
2023-02-24T10:51:08.287Z,100.00
2023-02-24T10:53:27.772Z,100.00
2023-02-24T10:55:45.853Z,100.00
2023-02-24T10:57:58.555Z,100.00
2023-02-24T11:00:19.013Z,100.00
2023-02-24T11:02:29.496Z,100.00
2023-02-24T11:04:53.960Z,100.00
2023-02-24T11:07:43.968Z,100.00
2023-02-24T11:09:52.428Z,100.00
2023-02-24T11:12:24.830Z,100.00
2023-02-24T11:14:44.835Z,100.00
2023-02-24T11:17:12.279Z,100.00
2023-02-24T11:19:14.925Z,100.00
2023-02-24T11:21:17.205Z,100.00
2023-02-24T11:23:34.903Z,100.00
2023-02-24T11:25:41.864Z,100.00
2023-02-24T11:27:43.689Z,100.00
2023-02-24T11:30:17.366Z,100.00
2023-02-24T11:32:52.736Z,100.00
2023-02-24T11:35:04.325Z,100.00
2023-02-24T11:37:14.452Z,100.00
2023-02-24T11:39:22.649Z,100.00
2023-02-24T11:41:53.627Z,100.00
2023-02-24T11:44:02.231Z,100.00
2023-02-24T11:46:12.339Z,100.00
2023-02-24T11:48:22.913Z,100.00
2023-02-24T11:50:43.847Z,100.00
2023-02-24T11:52:49.129Z,100.00
2023-02-24T11:54:54.992Z,100.00
2023-02-24T11:57:00.336Z,100.00
2023-02-24T11:59:08.822Z,100.00
2023-02-24T12:01:19.995Z,100.00
2023-02-24T12:03:37.624Z,100.00
2023-02-24T12:05:47.257Z,100.00
2023-02-24T12:07:54.256Z,100.00
2023-02-24T12:10:15.963Z,100.00
2023-02-24T12:12:38.726Z,100.00
2023-02-24T12:14:47.762Z,100.00
2023-02-24T12:16:58.936Z,100.00
2023-02-24T12:19:19.927Z,100.00
2023-02-24T12:21:30.521Z,100.00
2023-02-24T12:23:39.308Z,100.00
2023-02-24T12:26:09.041Z,100.00
2023-02-24T12:28:33.988Z,100.00
2023-02-24T12:30:57.617Z,100.00
2023-02-24T12:33:18.894Z,100.00
2023-02-24T12:35:32.984Z,100.00
2023-02-24T12:38:03.669Z,100.00
2023-02-24T12:40:14.488Z,100.00
2023-02-24T12:42:45.208Z,100.00
2023-02-24T12:45:05.019Z,100.00
2023-02-24T12:47:15.564Z,100.00
2023-02-24T12:49:52.927Z,100.00
2023-02-24T12:52:07.867Z,100.00
2023-02-24T12:54:18.473Z,100.00
2023-02-24T12:56:54.191Z,100.00
2023-02-24T12:59:05.379Z,100.00
2023-02-24T13:01:27.120Z,100.00
2023-02-24T13:03:40.630Z,100.00
2023-02-24T13:05:52.211Z,100.00
2023-02-24T13:08:18.127Z,100.00
2023-02-24T13:10:46.832Z,100.00
2023-02-24T13:12:52.860Z,100.00
2023-02-24T13:14:54.887Z,100.00
2023-02-24T13:17:11.453Z,100.00
2023-02-24T13:19:26.494Z,100.00
2023-02-24T13:21:28.031Z,100.00
2023-02-24T13:23:31.698Z,100.00
2023-02-24T13:25:39.524Z,100.00
2023-02-24T13:27:43.329Z,100.00
2023-02-24T13:29:57.604Z,100.00
2023-02-24T13:31:59.400Z,100.00
2023-02-24T13:34:13.505Z,100.00
2023-02-24T13:36:21.682Z,100.00
2023-02-24T13:38:29.298Z,100.00
2023-02-24T13:40:31.580Z,100.00
2023-02-24T13:42:33.159Z,100.00
2023-02-24T13:44:34.708Z,100.00
2023-02-24T13:46:59.421Z,100.00
2023-02-24T13:49:17.004Z,100.00
2023-02-24T13:51:46.275Z,100.00
2023-02-24T13:54:23.292Z,100.00
2023-02-24T13:56:51.201Z,100.00
2023-02-24T13:59:17.066Z,100.00
2023-02-24T14:01:20.881Z,100.00
2023-02-24T14:03:26.750Z,100.00
2023-02-24T14:05:33.838Z,99.76
2023-02-24T14:07:38.384Z,99.69
2023-02-24T14:09:46.314Z,99.43
2023-02-24T14:11:51.677Z,99.23
2023-02-24T14:13:56.115Z,99.30
2023-02-24T14:15:59.822Z,98.78
2023-02-24T14:18:05.121Z,98.01
2023-02-24T14:20:09.396Z,97.20
2023-02-24T14:22:19.243Z,96.13
2023-02-24T14:24:21.340Z,95.32
2023-02-24T14:26:23.360Z,94.94
2023-02-24T14:28:29.889Z,94.31
2023-02-24T14:30:35.512Z,93.87
2023-02-24T14:32:37.089Z,92.79
2023-02-24T14:34:38.886Z,93.30
2023-02-24T14:36:45.087Z,93.70
2023-02-24T14:38:46.833Z,93.34
2023-02-24T14:40:48.949Z,94.07
2023-02-24T14:42:50.538Z,93.04
2023-02-24T14:44:54.667Z,90.45
2023-02-24T14:46:59.077Z,87.68
2023-02-24T14:49:00.563Z,84.96
2023-02-24T14:51:09.445Z,84.16
2023-02-24T14:53:17.810Z,84.83
2023-02-24T14:55:26.376Z,85.24
2023-02-24T14:57:33.391Z,84.78
2023-02-24T14:59:39.862Z,84.37
2023-02-24T15:01:45.818Z,83.54
2023-02-24T15:03:51.009Z,83.23
2023-02-24T15:05:55.440Z,83.78
2023-02-24T15:07:58.551Z,82.90
2023-02-24T15:10:01.667Z,83.39
2023-02-24T15:12:14.160Z,83.84
2023-02-24T15:14:33.666Z,84.07
2023-02-24T15:16:47.175Z,84.44
2023-02-24T15:18:55.022Z,84.31
2023-02-24T15:21:05.718Z,85.00
2023-02-24T15:23:26.666Z,85.02
2023-02-24T15:25:41.973Z,85.05
2023-02-24T15:27:58.614Z,85.44
2023-02-24T15:30:04.896Z,85.27
2023-02-24T15:32:16.045Z,85.35
2023-02-24T15:34:21.045Z,85.58
2023-02-24T15:36:25.698Z,86.50
2023-02-24T15:38:32.418Z,87.90
2023-02-24T15:40:34.039Z,89.21
2023-02-24T15:42:35.870Z,90.35
2023-02-24T15:44:37.405Z,91.15
2023-02-24T15:46:38.958Z,91.63
2023-02-24T15:48:44.226Z,91.83
2023-02-24T15:50:45.813Z,92.56
2023-02-24T15:52:47.907Z,92.98
2023-02-24T15:54:50.343Z,93.22
2023-02-24T15:56:51.912Z,93.79
2023-02-24T15:58:53.373Z,93.78
2023-02-24T16:00:54.845Z,94.34
2023-02-24T16:02:56.907Z,94.36
2023-02-24T16:04:58.398Z,94.56
2023-02-24T16:06:59.985Z,94.55
2023-02-24T16:09:05.260Z,95.34
2023-02-24T16:11:06.809Z,95.33
2023-02-24T16:13:18.801Z,95.10
2023-02-24T16:15:23.972Z,95.22
2023-02-24T16:17:33.185Z,94.83
2023-02-24T16:19:34.776Z,95.02
2023-02-24T16:21:36.486Z,95.13
2023-02-24T16:23:40.748Z,94.46
2023-02-24T16:25:44.542Z,94.27
2023-02-24T16:27:46.416Z,94.17
2023-02-24T16:29:49.662Z,94.67
2023-02-24T16:31:51.357Z,93.16
2023-02-24T16:33:55.604Z,93.13
2023-02-24T16:35:57.402Z,93.23
2023-02-24T16:38:00.394Z,93.10
2023-02-24T16:40:01.961Z,93.03
2023-02-24T16:42:07.376Z,91.84
2023-02-24T16:44:10.560Z,91.89
2023-02-24T16:46:24.876Z,92.65
2023-02-24T16:48:27.481Z,93.12
2023-02-24T16:50:35.748Z,93.35
2023-02-24T16:52:37.202Z,92.64
2023-02-24T16:54:38.726Z,93.41
2023-02-24T16:56:40.190Z,92.83
2023-02-24T16:58:41.775Z,92.82
2023-02-24T17:00:46.608Z,92.85
2023-02-24T17:02:48.121Z,93.33
2023-02-24T17:04:49.704Z,92.65
2023-02-24T17:06:51.528Z,93.19
2023-02-24T17:08:52.989Z,92.40
2023-02-24T17:10:54.922Z,92.61
2023-02-24T17:12:56.382Z,92.54
2023-02-24T17:14:59.318Z,90.71
2023-02-24T17:17:00.911Z,89.87
2023-02-24T17:19:02.528Z,89.49
2023-02-24T17:21:05.165Z,89.41
2023-02-24T17:23:07.270Z,89.38
2023-02-24T17:25:15.610Z,89.74
2023-02-24T17:27:17.124Z,89.01
2023-02-24T17:29:19.190Z,89.12
2023-02-24T17:31:20.839Z,90.07
2023-02-24T17:33:22.550Z,89.99
2023-02-24T17:35:24.708Z,90.65
2023-02-24T17:37:26.148Z,89.80
2023-02-24T17:39:27.792Z,90.53
2023-02-24T17:41:29.504Z,90.63
2023-02-24T17:43:30.985Z,91.91
2023-02-24T17:45:32.525Z,92.11
2023-02-24T17:47:34.668Z,92.12
2023-02-24T17:49:36.161Z,92.40
2023-02-24T17:51:37.839Z,92.83
2023-02-24T17:53:39.292Z,93.41
2023-02-24T17:55:55.916Z,92.40
2023-02-24T17:58:01.452Z,92.90
2023-02-24T18:00:04.918Z,93.31
2023-02-24T18:02:06.798Z,93.15
2023-02-24T18:04:12.478Z,93.26
2023-02-24T18:06:14.023Z,92.96
2023-02-24T18:08:15.656Z,92.35
2023-02-24T18:10:17.763Z,92.06
2023-02-24T18:12:20.880Z,92.12
2023-02-24T18:14:22.380Z,92.04
2023-02-24T18:16:24.252Z,92.57
2023-02-24T18:18:27.679Z,91.72
2023-02-24T18:20:30.552Z,91.49
2023-02-24T18:22:32.039Z,91.46
2023-02-24T18:24:34.433Z,90.14
2023-02-24T18:26:36.279Z,90.79
2023-02-24T18:28:39.102Z,90.53
2023-02-24T18:30:40.617Z,89.69
2023-02-24T18:32:44.446Z,90.12
2023-02-24T18:34:46.245Z,89.64
2023-02-24T18:36:47.737Z,89.67
2023-02-24T18:38:49.302Z,89.38
2023-02-24T18:41:08.485Z,89.42
2023-02-24T18:43:09.952Z,89.09
2023-02-24T18:45:11.429Z,89.60
2023-02-24T18:47:12.899Z,89.13
2023-02-24T18:49:14.489Z,88.57
2023-02-24T18:51:20.622Z,88.08
2023-02-24T18:53:23.236Z,88.88
2023-02-24T18:55:24.683Z,89.10
2023-02-24T18:57:26.436Z,88.39
2023-02-24T18:59:28.414Z,88.28
2023-02-24T19:01:31.355Z,88.50
2023-02-24T19:03:32.831Z,88.26
2023-02-24T19:05:38.836Z,88.08
2023-02-24T19:07:40.516Z,88.70
2023-02-24T19:09:42.771Z,88.93
2023-02-24T19:11:44.382Z,88.28
2023-02-24T19:13:47.749Z,88.68
2023-02-24T19:15:49.633Z,88.17
2023-02-24T19:17:51.317Z,88.70
2023-02-24T19:19:54.009Z,88.86
2023-02-24T19:21:55.542Z,88.46
2023-02-24T19:24:03.916Z,88.54
2023-02-24T19:26:07.533Z,87.65
2023-02-24T19:28:09.036Z,88.37
2023-02-24T19:30:11.048Z,88.37
2023-02-24T19:32:12.674Z,87.50
2023-02-24T19:34:15.255Z,88.03
2023-02-24T19:36:16.766Z,87.54
2023-02-24T19:38:21.351Z,87.48
2023-02-24T19:40:23.586Z,87.40
2023-02-24T19:42:25.739Z,86.93
2023-02-24T19:44:27.234Z,87.77
2023-02-24T19:46:32.971Z,87.44
2023-02-24T19:48:35.578Z,88.52
2023-02-24T19:50:41.166Z,88.20
2023-02-24T19:52:43.122Z,89.69
2023-02-24T19:54:44.580Z,89.15
2023-02-24T19:56:46.024Z,90.02
2023-02-24T19:58:48.709Z,89.83
2023-02-24T20:00:50.225Z,90.33
2023-02-24T20:02:53.230Z,90.39
2023-02-24T20:04:55.157Z,89.91
2023-02-24T20:06:56.801Z,90.67
2023-02-24T20:08:58.567Z,90.03
2023-02-24T20:11:05.336Z,89.73
2023-02-24T20:13:07.065Z,89.42
2023-02-24T20:15:09.320Z,89.75
2023-02-24T20:17:10.789Z,89.18
2023-02-24T20:19:13.804Z,89.60
2023-02-24T20:21:15.266Z,89.09
2023-02-24T20:23:16.781Z,90.10
2023-02-24T20:25:18.310Z,89.63
2023-02-24T20:27:19.781Z,89.55
2023-02-24T20:29:22.125Z,89.67
2023-02-24T20:31:23.940Z,89.02
2023-02-24T20:33:26.200Z,89.26
2023-02-24T20:35:28.469Z,89.57
2023-02-24T20:37:29.975Z,89.24
2023-02-24T20:39:33.026Z,89.29
2023-02-24T20:41:34.804Z,89.77
2023-02-24T20:43:36.437Z,90.29
2023-02-24T20:45:38.835Z,90.74
2023-02-24T20:47:40.355Z,91.06
2023-02-24T20:49:41.972Z,91.28
2023-02-24T20:51:43.922Z,91.16
2023-02-24T20:53:56.833Z,91.31
2023-02-24T20:56:07.299Z,91.66
2023-02-24T20:58:08.821Z,91.90
2023-02-24T21:00:11.644Z,92.10
2023-02-24T21:02:13.181Z,92.17
2023-02-24T21:04:16.280Z,92.17
2023-02-24T21:06:18.561Z,91.63
2023-02-24T21:08:20.055Z,92.32
2023-02-24T21:10:25.866Z,92.71
2023-02-24T21:12:27.358Z,91.97
2023-02-24T21:14:28.882Z,92.44
2023-02-24T21:16:30.391Z,93.07
2023-02-24T21:18:31.880Z,93.11
2023-02-24T21:20:33.336Z,93.26
2023-02-24T21:22:34.834Z,93.37
2023-02-24T21:24:36.622Z,93.14
2023-02-24T21:26:38.201Z,93.88
2023-02-24T21:28:40.385Z,93.98
2023-02-24T21:30:42.609Z,94.18
2023-02-24T21:32:44.237Z,94.10
2023-02-24T21:34:45.778Z,93.70
2023-02-24T21:36:47.336Z,93.61
2023-02-24T21:38:48.816Z,93.94
2023-02-24T21:40:50.266Z,94.16
2023-02-24T21:42:51.745Z,94.72
2023-02-24T21:44:57.232Z,94.33
2023-02-24T21:46:58.873Z,94.82
2023-02-24T21:49:00.630Z,94.87
2023-02-24T21:51:04.704Z,93.98
2023-02-24T21:53:06.178Z,94.30
2023-02-24T21:55:09.333Z,94.59
2023-02-24T21:57:10.810Z,94.48
2023-02-24T21:59:12.310Z,95.04
2023-02-24T22:01:20.124Z,94.63
2023-02-24T22:03:21.672Z,94.70
2023-02-24T22:05:24.808Z,94.74
2023-02-24T22:07:28.310Z,94.57
2023-02-24T22:09:30.869Z,94.76
2023-02-24T22:11:35.363Z,94.92
2023-02-24T22:13:37.514Z,94.91
2023-02-24T22:15:39.216Z,94.88
2023-02-24T22:17:41.263Z,94.41
2023-02-24T22:19:42.731Z,94.54
2023-02-24T22:21:44.258Z,94.13
2023-02-24T22:23:47.623Z,94.29
2023-02-24T22:25:49.070Z,93.92
2023-02-24T22:27:50.515Z,93.93
2023-02-24T22:29:52.001Z,94.21
2023-02-24T22:31:53.585Z,94.66
2023-02-24T22:33:55.391Z,94.45
2023-02-24T22:36:02.347Z,94.86
2023-02-24T22:38:03.883Z,93.79
2023-02-24T22:40:05.933Z,94.41
2023-02-24T22:42:11.619Z,94.35
2023-02-24T22:44:14.322Z,93.78
2023-02-24T22:46:23.923Z,93.62
2023-02-24T22:48:26.640Z,94.00
2023-02-24T22:50:28.184Z,93.79
2023-02-24T22:52:29.673Z,92.99
2023-02-24T22:54:31.126Z,93.23
2023-02-24T22:56:32.604Z,92.88
2023-02-24T22:58:34.185Z,93.38
2023-02-24T23:00:35.687Z,93.06
2023-02-24T23:02:37.242Z,92.67
2023-02-24T23:04:38.846Z,93.01
2023-02-24T23:06:40.422Z,91.86
2023-02-24T23:08:44.490Z,92.68
2023-02-24T23:10:45.995Z,92.36
2023-02-24T23:12:48.649Z,91.26
2023-02-24T23:14:50.106Z,91.25
2023-02-24T23:16:55.382Z,91.37
2023-02-24T23:18:58.984Z,92.02
2023-02-24T23:21:03.217Z,91.61
2023-02-24T23:23:04.697Z,91.07
2023-02-24T23:25:10.290Z,91.07
2023-02-24T23:27:11.851Z,91.31
2023-02-24T23:29:17.235Z,91.50
2023-02-24T23:31:20.485Z,91.61
2023-02-24T23:33:22.591Z,91.45
2023-02-24T23:35:24.348Z,91.89
2023-02-24T23:37:26.188Z,91.14
2023-02-24T23:39:27.736Z,91.30
2023-02-24T23:41:29.225Z,91.22
2023-02-24T23:43:30.680Z,91.35
2023-02-24T23:45:32.571Z,90.53
2023-02-24T23:47:34.082Z,89.84
2023-02-24T23:49:47.455Z,88.92
2023-02-24T23:51:49.844Z,89.78
2023-02-24T23:53:51.630Z,89.54
2023-02-24T23:55:53.383Z,89.40
2023-02-24T23:57:54.855Z,89.28
2023-02-24T23:59:56.390Z,88.58
